createdAt,value
2022-10-26T00:00:33.451Z,98632.67
2022-10-26T00:03:25.528Z,98630.38
2022-10-26T00:06:03.157Z,98627.68
2022-10-26T00:08:35.594Z,98626.05
2022-10-26T00:11:10.040Z,98629.94
2022-10-26T00:13:43.216Z,98635.14
2022-10-26T00:16:19.345Z,98641.75
2022-10-26T00:18:51.972Z,98643.65
2022-10-26T00:21:24.701Z,98645.20
2022-10-26T00:23:59.859Z,98641.35
2022-10-26T00:26:31.866Z,98642.11
2022-10-26T00:29:04.598Z,98642.54
2022-10-26T00:31:38.241Z,98643.39
2022-10-26T00:34:11.945Z,98640.09
2022-10-26T00:36:44.286Z,98642.16
2022-10-26T00:39:18.097Z,98644.23
2022-10-26T00:41:51.142Z,98642.48
2022-10-26T00:45:05.730Z,98644.10
2022-10-26T00:47:42.917Z,98643.81
2022-10-26T00:50:21.437Z,98647.10
2022-10-26T00:52:54.521Z,98646.11
2022-10-26T00:55:32.984Z,98645.55
2022-10-26T00:58:11.336Z,98641.60
2022-10-26T01:00:48.150Z,98644.40
2022-10-26T01:03:21.640Z,98646.45
2022-10-26T01:05:56.617Z,98641.92
2022-10-26T01:08:29.986Z,98641.54
2022-10-26T01:11:03.698Z,98641.95
2022-10-26T01:13:39.663Z,98641.80
2022-10-26T01:16:27.250Z,98641.02
2022-10-26T01:19:17.928Z,98642.27
2022-10-26T01:21:56.244Z,98647.67
2022-10-26T01:24:54.291Z,98649.36
2022-10-26T01:27:35.715Z,98650.93
2022-10-26T01:30:28.190Z,98648.69
2022-10-26T01:33:21.392Z,98647.83
2022-10-26T01:36:04.589Z,98644.25
2022-10-26T01:38:47.363Z,98638.10
2022-10-26T01:41:25.241Z,98634.22
2022-10-26T01:44:01.345Z,98634.52
2022-10-26T01:46:36.468Z,98636.92
2022-10-26T01:49:13.093Z,98638.33
2022-10-26T01:51:48.386Z,98639.64
2022-10-26T01:54:20.543Z,98640.23
2022-10-26T01:56:56.754Z,98643.99
2022-10-26T01:59:41.006Z,98644.10
2022-10-26T02:02:33.629Z,98648.61
2022-10-26T02:05:32.703Z,98651.36
2022-10-26T02:08:24.121Z,98648.66
2022-10-26T02:11:10.411Z,98644.41
2022-10-26T02:13:48.013Z,98647.20
2022-10-26T02:16:26.093Z,98648.56
2022-10-26T02:19:06.457Z,98648.89
2022-10-26T02:21:44.800Z,98647.59
2022-10-26T02:24:18.331Z,98652.90
2022-10-26T02:26:51.895Z,98654.17
2022-10-26T02:29:26.215Z,98657.01
2022-10-26T02:31:59.147Z,98658.32
2022-10-26T02:34:31.774Z,98662.17
2022-10-26T02:37:06.081Z,98666.52
2022-10-26T02:39:40.549Z,98668.60
2022-10-26T02:42:15.606Z,98666.56
2022-10-26T02:44:52.501Z,98668.84
2022-10-26T02:47:27.846Z,98670.59
2022-10-26T02:50:00.995Z,98673.84
2022-10-26T02:52:45.685Z,98674.17
2022-10-26T02:55:24.592Z,98673.94
2022-10-26T02:57:59.543Z,98674.45
2022-10-26T03:00:34.627Z,98678.89
2022-10-26T03:03:07.436Z,98674.63
2022-10-26T03:05:44.838Z,98681.30
2022-10-26T03:08:16.894Z,98684.00
2022-10-26T03:10:49.283Z,98684.09
2022-10-26T03:13:21.249Z,98686.23
2022-10-26T03:15:55.963Z,98687.48
2022-10-26T03:18:27.971Z,98689.36
2022-10-26T03:20:59.908Z,98686.59
2022-10-26T03:23:31.980Z,98681.88
2022-10-26T03:26:04.225Z,98681.45
2022-10-26T03:28:36.522Z,98684.89
2022-10-26T03:31:11.217Z,98686.63
2022-10-26T03:33:43.545Z,98687.45
2022-10-26T03:36:15.440Z,98686.98
2022-10-26T03:38:47.846Z,98690.94
2022-10-26T03:41:22.246Z,98692.81
2022-10-26T03:43:54.729Z,98690.50
2022-10-26T03:46:28.973Z,98687.69
2022-10-26T03:49:00.992Z,98688.80
2022-10-26T03:51:33.389Z,98692.63
2022-10-26T03:54:05.754Z,98696.85
2022-10-26T03:56:39.390Z,98700.84
2022-10-26T03:59:11.478Z,98699.05
2022-10-26T04:01:43.534Z,98698.35
2022-10-26T04:04:16.109Z,98695.36
2022-10-26T04:06:49.120Z,98694.92
2022-10-26T04:09:21.305Z,98696.14
2022-10-26T04:11:53.440Z,98693.59
2022-10-26T04:14:25.656Z,98693.09
2022-10-26T04:16:57.685Z,98693.74
2022-10-26T04:19:32.176Z,98694.38
2022-10-26T04:22:04.112Z,98697.75
2022-10-26T04:24:36.486Z,98695.25
2022-10-26T04:27:11.230Z,98694.52
2022-10-26T04:29:43.300Z,98697.19
2022-10-26T04:32:15.269Z,98695.02
2022-10-26T04:34:47.307Z,98695.58
2022-10-26T04:37:19.314Z,98697.73
2022-10-26T04:39:51.314Z,98698.15
2022-10-26T04:42:23.634Z,98699.89
2022-10-26T04:44:55.663Z,98697.08
2022-10-26T04:47:27.721Z,98696.85
2022-10-26T04:50:02.087Z,98696.44
2022-10-26T04:52:34.053Z,98699.85
2022-10-26T04:55:07.168Z,98703.91
2022-10-26T04:57:39.148Z,98707.69
2022-10-26T05:00:13.052Z,98708.11
2022-10-26T05:02:45.135Z,98705.67
2022-10-26T05:05:17.403Z,98703.00
2022-10-26T05:07:56.878Z,98700.88
2022-10-26T05:10:29.591Z,98698.66
2022-10-26T05:13:02.658Z,98697.67
2022-10-26T05:15:34.624Z,98700.56
2022-10-26T05:18:09.126Z,98702.72
2022-10-26T05:20:41.051Z,98699.45
2022-10-26T05:23:18.415Z,98700.51
2022-10-26T05:25:51.898Z,98705.98
2022-10-26T05:28:24.461Z,98710.59
2022-10-26T05:30:56.399Z,98718.27
2022-10-26T05:33:28.872Z,98719.97
2022-10-26T05:36:00.902Z,98720.55
2022-10-26T05:38:32.926Z,98719.27
2022-10-26T05:41:05.160Z,98719.68
2022-10-26T05:43:37.111Z,98721.39
2022-10-26T05:46:09.137Z,98721.95
2022-10-26T05:48:41.068Z,98724.21
2022-10-26T05:51:14.374Z,98724.11
2022-10-26T05:53:46.347Z,98725.61
2022-10-26T05:56:24.409Z,98725.58
2022-10-26T05:58:57.239Z,98728.50
2022-10-26T06:01:43.875Z,98729.77
2022-10-26T06:04:27.720Z,98732.37
2022-10-26T06:07:00.475Z,98735.75
2022-10-26T06:09:33.583Z,98738.67
2022-10-26T06:12:07.450Z,98741.90
2022-10-26T06:14:40.376Z,98743.92
2022-10-26T06:17:36.635Z,98743.20
2022-10-26T06:20:22.286Z,98744.98
2022-10-26T06:23:06.541Z,98747.67
2022-10-26T06:25:45.534Z,98745.52
2022-10-26T06:28:29.874Z,98748.54
2022-10-26T06:31:01.925Z,98748.80
2022-10-26T06:33:34.236Z,98748.46
2022-10-26T06:36:21.701Z,98753.72
2022-10-26T06:38:58.081Z,98756.45
2022-10-26T06:41:32.052Z,98758.91
2022-10-26T06:44:06.292Z,98764.11
2022-10-26T06:46:45.075Z,98767.92
2022-10-26T06:49:23.212Z,98767.38
2022-10-26T06:51:59.879Z,98768.11
2022-10-26T06:54:46.704Z,98762.79
2022-10-26T06:57:22.485Z,98759.05
2022-10-26T07:00:01.124Z,98757.48
2022-10-26T07:02:33.936Z,98758.41
2022-10-26T07:05:10.239Z,98763.89
2022-10-26T07:07:44.350Z,98768.50
2022-10-26T07:10:17.723Z,98776.27
2022-10-26T07:12:49.830Z,98774.00
2022-10-26T07:15:24.665Z,98770.02
2022-10-26T07:17:56.585Z,98765.49
2022-10-26T07:20:30.189Z,98764.24
2022-10-26T07:23:06.933Z,98761.18
2022-10-26T07:25:40.578Z,98759.48
2022-10-26T07:28:13.184Z,98757.71
2022-10-26T07:30:45.205Z,98764.81
2022-10-26T07:33:17.564Z,98764.98
2022-10-26T07:35:52.124Z,98767.04
2022-10-26T07:38:24.042Z,98766.34
2022-10-26T07:40:56.024Z,98770.00
2022-10-26T07:43:28.421Z,98771.21
2022-10-26T07:46:00.369Z,98763.84
2022-10-26T07:48:32.574Z,98762.23
2022-10-26T07:51:05.491Z,98757.79
2022-10-26T07:53:37.458Z,98757.59
2022-10-26T07:56:11.232Z,98751.25
2022-10-26T07:58:44.086Z,98755.29
2022-10-26T08:01:17.708Z,98764.64
2022-10-26T08:03:52.659Z,98758.85
2022-10-26T08:06:25.130Z,98745.56
2022-10-26T08:09:00.022Z,98749.92
2022-10-26T08:11:32.070Z,98743.33
2022-10-26T08:14:04.484Z,98741.25
2022-10-26T08:16:36.410Z,98750.02
2022-10-26T08:19:08.659Z,98748.61
2022-10-26T08:21:41.937Z,98752.14
2022-10-26T08:24:14.684Z,98750.65
2022-10-26T08:26:46.565Z,98743.27
2022-10-26T08:29:20.452Z,98737.11
2022-10-26T08:31:52.412Z,98732.02
2022-10-26T08:34:24.287Z,98730.75
2022-10-26T08:55:05.524Z,98639.81
2022-10-26T09:11:09.972Z,98574.10
2022-10-26T09:15:33.459Z,98563.05
2022-10-26T09:27:16.723Z,98540.83
2022-10-26T09:29:56.315Z,98537.85
2022-10-26T09:32:28.445Z,98524.77
2022-10-26T09:35:07.661Z,98510.40
2022-10-26T09:37:42.001Z,98521.07
2022-10-26T09:40:22.871Z,98521.35
2022-10-26T09:43:03.886Z,98521.48
2022-10-26T09:45:39.027Z,98522.25
2022-10-26T09:48:17.688Z,98525.72
2022-10-26T09:50:52.550Z,98528.39
2022-10-26T09:53:25.008Z,98513.70
2022-10-26T09:56:06.708Z,98519.08
2022-10-26T09:58:42.744Z,98528.23
2022-10-26T10:01:35.687Z,98533.48
2022-10-26T10:04:21.163Z,98537.21
2022-10-26T10:07:12.387Z,98534.17
2022-10-26T10:09:44.430Z,98539.71
2022-10-26T10:12:23.101Z,98536.14
2022-10-26T10:15:01.856Z,98531.13
2022-10-26T10:17:34.708Z,98531.45
2022-10-26T10:20:19.227Z,98542.83
2022-10-26T10:22:59.866Z,98561.59
2022-10-26T10:25:40.182Z,98566.59
2022-10-26T10:28:25.670Z,98564.60
2022-10-26T10:31:00.511Z,98582.48
2022-10-26T10:33:45.866Z,98577.08
2022-10-26T10:36:59.365Z,98574.03
2022-10-26T10:39:38.695Z,98572.39
2022-10-26T10:42:22.974Z,98553.14
2022-10-26T10:44:56.839Z,98539.91
2022-10-26T10:47:30.901Z,98543.99
2022-10-26T10:50:05.884Z,98558.30
2022-10-26T10:52:41.263Z,98563.86
2022-10-26T10:55:22.178Z,98546.42
2022-10-26T10:58:09.465Z,98538.00
2022-10-26T11:00:45.088Z,98535.39
2022-10-26T11:03:32.353Z,98545.08
2022-10-26T11:06:16.411Z,98555.10
2022-10-26T11:08:53.746Z,98558.02
2022-10-26T11:11:29.994Z,98552.92
2022-10-26T11:14:06.847Z,98554.20
2022-10-26T11:16:43.680Z,98564.15
2022-10-26T11:19:23.872Z,98580.00
2022-10-26T11:21:57.265Z,98580.05
2022-10-26T11:24:35.313Z,98584.14
2022-10-26T11:27:17.094Z,98591.92
2022-10-26T11:29:52.890Z,98609.73
2022-10-26T11:32:29.979Z,98613.16
2022-10-26T11:35:06.783Z,98611.84
2022-10-26T11:37:46.484Z,98622.79
2022-10-26T11:40:34.746Z,98632.13
2022-10-26T11:43:15.615Z,98640.45
2022-10-26T11:45:55.665Z,98648.16
2022-10-26T11:48:37.140Z,98662.92
2022-10-26T11:51:17.788Z,98677.70
2022-10-26T11:54:08.345Z,98688.58
2022-10-26T11:56:45.519Z,98692.25
2022-10-26T11:59:21.987Z,98691.60
2022-10-26T12:01:58.356Z,98693.03
2022-10-26T12:04:34.878Z,98704.76
2022-10-26T12:07:12.724Z,98713.45
2022-10-26T12:09:46.472Z,98724.46
2022-10-26T12:12:28.077Z,98729.96
2022-10-26T12:15:07.104Z,98736.47
2022-10-26T12:17:46.717Z,98740.15
2022-10-26T12:20:50.583Z,98740.00
2022-10-26T12:23:40.510Z,98742.90
2022-10-26T12:26:51.634Z,98743.81
2022-10-26T12:29:45.706Z,98748.13
2022-10-26T12:32:54.322Z,98757.23
2022-10-26T12:35:35.503Z,98767.12
2022-10-26T12:38:55.535Z,98771.21
2022-10-26T12:41:29.207Z,98775.92
2022-10-26T12:44:25.517Z,98778.70
2022-10-26T12:46:57.528Z,98782.80
2022-10-26T12:49:59.708Z,98788.47
2022-10-26T12:52:47.501Z,98791.35
2022-10-26T12:55:57.249Z,98798.89
2022-10-26T12:59:05.243Z,98799.61
2022-10-26T13:05:06.075Z,98793.94
2022-10-26T13:07:41.652Z,98776.87
2022-10-26T13:10:24.304Z,98774.13
2022-10-26T13:12:58.383Z,98759.58
2022-10-26T13:15:34.646Z,98750.91
2022-10-26T13:18:18.019Z,98737.09
2022-10-26T13:21:05.283Z,98733.69
2022-10-26T13:23:39.836Z,98727.80
2022-10-26T13:26:13.894Z,98719.85
2022-10-26T13:28:52.095Z,98713.36
2022-10-26T13:31:57.794Z,98708.52
2022-10-26T13:34:33.047Z,98710.55
2022-10-26T13:37:21.356Z,98708.34
2022-10-26T13:39:56.325Z,98703.36
2022-10-26T13:49:47.510Z,98725.38
2022-10-26T13:52:28.745Z,98724.09
2022-10-26T13:55:04.913Z,98720.48
2022-10-26T13:57:40.611Z,98720.14
2022-10-26T14:00:20.546Z,98724.08
2022-10-26T14:02:52.911Z,98724.42
2022-10-26T14:05:26.089Z,98729.70
2022-10-26T14:08:00.355Z,98736.94
2022-10-26T14:10:38.104Z,98744.94
2022-10-26T14:13:19.242Z,98747.29
2022-10-26T14:15:51.564Z,98747.23
2022-10-26T14:18:26.665Z,98747.89
2022-10-26T14:21:03.317Z,98751.70
2022-10-26T14:23:38.971Z,98750.09
2022-10-26T14:26:22.425Z,98752.73
2022-10-26T14:28:59.388Z,98754.27
2022-10-26T14:31:35.835Z,98757.14
2022-10-26T14:34:13.500Z,98760.10
2022-10-26T14:36:49.967Z,98760.05
2022-10-26T14:39:31.356Z,98768.91
2022-10-26T14:42:11.492Z,98775.89
2022-10-26T14:44:43.864Z,98783.94
2022-10-26T14:47:24.453Z,98792.63
2022-10-26T14:49:57.594Z,98797.36
2022-10-26T14:52:33.927Z,98801.98
2022-10-26T14:55:16.206Z,98807.92
2022-10-26T14:57:49.764Z,98815.61
2022-10-26T15:00:24.550Z,98829.17
2022-10-26T15:02:59.300Z,98835.70
2022-10-26T15:05:35.989Z,98840.81
2022-10-26T15:08:56.967Z,98846.34
2022-10-26T15:11:33.601Z,98852.07
2022-10-26T15:14:12.738Z,98857.05
2022-10-26T15:16:54.892Z,98862.69
2022-10-26T15:19:30.879Z,98867.05
2022-10-26T15:22:03.637Z,98876.77
2022-10-26T15:24:40.054Z,98878.02
2022-10-26T15:27:19.296Z,98884.52
2022-10-26T15:30:09.315Z,98889.95
2022-10-26T15:32:42.062Z,98898.58
2022-10-26T15:35:33.644Z,98902.47
2022-10-26T15:38:05.821Z,98908.55
2022-10-26T15:40:45.480Z,98917.31
2022-10-26T15:43:17.571Z,98920.98
2022-10-26T15:45:54.638Z,98921.85
2022-10-26T15:48:30.038Z,98924.39
2022-10-26T15:51:02.114Z,98929.23
2022-10-26T15:53:34.738Z,98929.66
2022-10-26T15:56:14.348Z,98937.55
2022-10-26T15:58:47.160Z,98940.77
2022-10-26T16:01:29.434Z,98940.74
2022-10-26T16:04:02.351Z,98942.05
2022-10-26T16:06:36.459Z,98944.34
2022-10-26T16:09:13.550Z,98949.36
2022-10-26T16:11:46.202Z,98949.09
2022-10-26T16:14:21.223Z,98949.47
2022-10-26T16:16:53.182Z,98946.38
2022-10-26T16:19:30.718Z,98948.69
2022-10-26T16:22:04.061Z,98949.30
2022-10-26T16:24:36.537Z,98949.64
2022-10-26T16:27:08.505Z,98950.07
2022-10-26T16:29:40.541Z,98953.34
2022-10-26T16:32:13.004Z,98958.20
2022-10-26T16:34:45.097Z,98955.83
2022-10-26T16:37:17.237Z,98954.55
2022-10-26T16:39:49.109Z,98960.65
2022-10-26T16:42:21.128Z,98959.74
2022-10-26T16:44:54.096Z,98957.23
2022-10-26T16:47:26.482Z,98950.66
2022-10-26T16:49:58.571Z,98945.78
2022-10-26T16:52:30.914Z,98951.78
2022-10-26T16:55:03.541Z,98955.67
2022-10-26T16:57:35.839Z,98958.18
2022-10-26T17:00:10.242Z,98964.55
2022-10-26T17:02:44.500Z,98961.83
2022-10-26T17:05:16.751Z,98956.83
2022-10-26T17:07:50.660Z,98956.73
2022-10-26T17:10:28.148Z,98958.45
2022-10-26T17:13:00.121Z,98962.05
2022-10-26T17:15:35.688Z,98961.97
2022-10-26T17:18:12.027Z,98967.98
2022-10-26T17:32:27.804Z,98973.31
2022-10-26T17:40:46.022Z,98978.73
2022-10-26T17:43:18.633Z,98982.55
2022-10-26T17:48:45.839Z,98982.11
2022-10-26T17:56:09.075Z,98990.02
2022-10-26T17:59:14.734Z,98991.55
2022-10-26T18:01:47.433Z,98993.22
2022-10-26T18:04:26.045Z,98995.10
2022-10-26T18:11:55.045Z,99001.65
2022-10-26T18:24:22.946Z,99003.35
2022-10-26T18:26:55.179Z,99004.41
2022-10-26T18:29:27.314Z,99005.59
2022-10-26T18:32:28.874Z,99006.33
2022-10-26T18:35:01.252Z,99008.48
2022-10-26T18:38:56.384Z,99009.37
2022-10-26T18:46:33.966Z,99012.77
2022-10-26T18:54:44.667Z,99012.53
2022-10-26T19:05:58.570Z,99012.72
2022-10-26T19:08:30.866Z,99015.12
2022-10-26T19:11:43.490Z,99010.35
2022-10-26T19:14:16.439Z,99017.52
2022-10-26T19:16:51.732Z,99018.92
2022-10-26T19:25:40.554Z,99016.73
2022-10-26T19:28:43.651Z,99019.95
2022-10-26T19:31:16.262Z,99024.52
2022-10-26T19:35:18.362Z,99028.46
2022-10-26T19:37:51.014Z,99032.39
2022-10-26T19:40:23.751Z,99036.25
2022-10-26T19:43:02.158Z,99039.02
2022-10-26T19:45:34.185Z,99041.35
2022-10-26T19:48:51.947Z,99046.61
2022-10-26T19:51:25.420Z,99050.45
2022-10-26T19:54:03.104Z,99051.14
2022-10-26T19:56:39.416Z,99051.15
2022-10-26T19:59:13.602Z,99057.05
2022-10-26T20:01:45.845Z,99054.95
2022-10-26T20:04:36.939Z,99056.55
2022-10-26T20:07:09.128Z,99055.73
2022-10-26T20:09:47.089Z,99059.94
2022-10-26T20:12:19.304Z,99058.36
2022-10-26T20:14:51.328Z,99065.69
2022-10-26T20:17:28.493Z,99065.17
2022-10-26T20:20:03.984Z,99060.72
2022-10-26T20:22:36.135Z,99059.81
2022-10-26T20:25:10.390Z,99057.39
2022-10-26T20:27:48.646Z,99058.14
2022-10-26T20:30:21.118Z,99059.14
2022-10-26T20:32:53.343Z,99062.48
2022-10-26T20:35:27.162Z,99065.54
2022-10-26T20:38:00.906Z,99068.98
2022-10-26T20:40:34.129Z,99070.64
2022-10-26T20:43:09.865Z,99074.90
2022-10-26T20:45:49.017Z,99075.28
2022-10-26T20:48:24.670Z,99076.94
2022-10-26T20:51:02.422Z,99076.38
2022-10-26T20:53:39.390Z,99074.96
2022-10-26T20:56:21.077Z,99077.83
2022-10-26T20:58:57.510Z,99084.95
2022-10-26T21:01:32.024Z,99084.87
2022-10-26T21:04:07.269Z,99085.59
2022-10-26T21:06:55.567Z,99082.20
2022-10-26T21:09:31.794Z,99083.56
2022-10-26T21:12:08.644Z,99081.73
2022-10-26T21:14:41.090Z,99081.84
2022-10-26T21:17:13.378Z,99086.85
2022-10-26T21:19:53.963Z,99091.70
2022-10-26T21:22:26.102Z,99091.58
2022-10-26T21:24:58.424Z,99091.20
2022-10-26T21:27:31.593Z,99092.74
2022-10-26T21:30:06.679Z,99092.66
2022-10-26T21:32:38.688Z,99094.80
2022-10-26T21:35:11.320Z,99092.80
2022-10-26T21:37:46.450Z,99094.58
2022-10-26T21:40:18.763Z,99099.60
2022-10-26T21:42:53.977Z,99098.89
2022-10-26T21:45:26.121Z,99096.65
2022-10-26T21:47:58.097Z,99100.54
2022-10-26T21:50:30.152Z,99098.08
2022-10-26T21:53:02.492Z,99101.77
2022-10-26T21:55:34.993Z,99100.77
2022-10-26T21:58:11.065Z,99100.71
2022-10-26T22:00:46.191Z,99102.08
2022-10-26T22:03:23.036Z,99108.85
2022-10-26T22:06:06.844Z,99109.44
2022-10-26T22:08:39.646Z,99110.94
2022-10-26T22:11:15.798Z,99108.57
2022-10-26T22:13:52.401Z,99103.80
2022-10-26T22:16:26.409Z,99101.77
2022-10-26T22:19:04.022Z,99101.27
2022-10-26T22:21:40.283Z,99102.83
2022-10-26T22:24:12.759Z,99102.66
2022-10-26T22:26:44.764Z,99104.55
2022-10-26T22:29:19.880Z,99104.81
2022-10-26T22:31:55.129Z,99106.31
2022-10-26T22:34:28.114Z,99107.48
2022-10-26T22:37:00.160Z,99107.62
2022-10-26T22:39:32.165Z,99105.70
2022-10-26T22:42:06.931Z,99105.13
2022-10-26T22:44:39.117Z,99106.84
2022-10-26T22:47:13.789Z,99104.30
2022-10-26T22:49:46.827Z,99110.44
2022-10-26T22:52:22.719Z,99108.71
2022-10-26T22:54:55.340Z,99110.42
2022-10-26T22:57:27.926Z,99111.30
2022-10-26T23:00:00.780Z,99111.76
2022-10-26T23:02:38.152Z,99114.70
2022-10-26T23:05:11.429Z,99113.27
2022-10-26T23:07:43.453Z,99110.31
2022-10-26T23:10:15.470Z,99110.69
2022-10-26T23:12:50.024Z,99112.19
2022-10-26T23:15:22.156Z,99114.79
2022-10-26T23:17:55.996Z,99118.27
2022-10-26T23:20:32.443Z,99119.19
2022-10-26T23:23:04.833Z,99119.98
2022-10-26T23:25:36.866Z,99116.44
2022-10-26T23:28:12.915Z,99112.71
2022-10-26T23:30:47.508Z,99111.81
2022-10-26T23:33:22.326Z,99107.98
2022-10-26T23:35:58.943Z,99109.19
2022-10-26T23:38:34.317Z,99111.29
2022-10-26T23:41:12.817Z,99110.65
2022-10-26T23:43:45.940Z,99114.44
2022-10-26T23:46:18.344Z,99115.92
2022-10-26T23:48:53.990Z,99118.13
2022-10-26T23:51:26.890Z,99117.70
2022-10-26T23:53:59.948Z,99113.56
2022-10-26T23:56:32.311Z,99108.61
2022-10-26T23:59:08.595Z,99112.28
